sensor_id;sensor_type;location;lat;lon;timestamp;P1;durP1;ratioP1;P2;durP2;ratioP2
11807;SDS011;5961;42.640;23.380;2023-03-01T00:01:10;4.20;;;3.43;;
11807;SDS011;5961;42.640;23.380;2023-03-01T00:03:38;3.57;;;2.97;;
11807;SDS011;5961;42.640;23.380;2023-03-01T00:06:07;3.17;;;2.90;;
11807;SDS011;5961;42.640;23.380;2023-03-01T00:08:34;3.47;;;3.07;;
11807;SDS011;5961;42.640;23.380;2023-03-01T00:11:02;3.17;;;2.87;;
11807;SDS011;5961;42.640;23.380;2023-03-01T00:13:30;3.37;;;2.90;;
11807;SDS011;5961;42.640;23.380;2023-03-01T00:15:56;4.00;;;3.23;;
11807;SDS011;5961;42.640;23.380;2023-03-01T00:18:23;3.13;;;2.83;;
11807;SDS011;5961;42.640;23.380;2023-03-01T00:20:50;3.00;;;2.70;;
11807;SDS011;5961;42.640;23.380;2023-03-01T00:23:19;4.03;;;3.00;;
11807;SDS011;5961;42.640;23.380;2023-03-01T00:25:46;3.20;;;2.90;;
11807;SDS011;5961;42.640;23.380;2023-03-01T00:28:12;3.23;;;2.90;;
11807;SDS011;5961;42.640;23.380;2023-03-01T00:30:39;3.03;;;2.53;;
11807;SDS011;5961;42.640;23.380;2023-03-01T00:33:06;3.10;;;2.80;;
11807;SDS011;5961;42.640;23.380;2023-03-01T00:35:33;2.70;;;2.50;;
11807;SDS011;5961;42.640;23.380;2023-03-01T00:38:00;3.10;;;2.60;;
11807;SDS011;5961;42.640;23.380;2023-03-01T00:40:28;2.63;;;2.43;;
11807;SDS011;5961;42.640;23.380;2023-03-01T00:42:55;2.93;;;2.63;;
11807;SDS011;5961;42.640;23.380;2023-03-01T00:45:22;2.90;;;2.60;;
11807;SDS011;5961;42.640;23.380;2023-03-01T00:47:49;3.47;;;2.30;;
11807;SDS011;5961;42.640;23.380;2023-03-01T00:50:16;2.50;;;2.30;;
11807;SDS011;5961;42.640;23.380;2023-03-01T00:52:43;3.07;;;2.63;;
11807;SDS011;5961;42.640;23.380;2023-03-01T00:55:10;2.80;;;2.50;;
11807;SDS011;5961;42.640;23.380;2023-03-01T00:57:39;2.50;;;2.30;;
11807;SDS011;5961;42.640;23.380;2023-03-01T01:00:06;4.40;;;2.50;;
11807;SDS011;5961;42.640;23.380;2023-03-01T01:02:34;2.30;;;2.10;;
11807;SDS011;5961;42.640;23.380;2023-03-01T01:05:01;2.60;;;2.40;;
11807;SDS011;5961;42.640;23.380;2023-03-01T01:07:28;2.30;;;2.10;;
11807;SDS011;5961;42.640;23.380;2023-03-01T01:09:55;2.60;;;2.40;;
11807;SDS011;5961;42.640;23.380;2023-03-01T01:12:21;2.50;;;2.30;;
11807;SDS011;5961;42.640;23.380;2023-03-01T01:14:50;2.50;;;2.30;;
11807;SDS011;5961;42.640;23.380;2023-03-01T01:17:16;2.10;;;1.93;;
11807;SDS011;5961;42.640;23.380;2023-03-01T01:19:43;2.30;;;2.10;;
11807;SDS011;5961;42.640;23.380;2023-03-01T01:22:10;3.07;;;2.40;;
11807;SDS011;5961;42.640;23.380;2023-03-01T01:24:36;2.27;;;2.07;;
11807;SDS011;5961;42.640;23.380;2023-03-01T01:27:03;2.47;;;2.27;;
11807;SDS011;5961;42.640;23.380;2023-03-01T01:29:30;2.10;;;1.90;;
11807;SDS011;5961;42.640;23.380;2023-03-01T01:31:58;2.23;;;2.00;;
11807;SDS011;5961;42.640;23.380;2023-03-01T01:34:24;2.30;;;2.10;;
11807;SDS011;5961;42.640;23.380;2023-03-01T01:36:52;1.93;;;1.83;;
11807;SDS011;5961;42.640;23.380;2023-03-01T01:39:19;2.47;;;2.20;;
11807;SDS011;5961;42.640;23.380;2023-03-01T01:41:46;2.00;;;1.90;;
11807;SDS011;5961;42.640;23.380;2023-03-01T01:44:15;3.47;;;2.10;;
11807;SDS011;5961;42.640;23.380;2023-03-01T01:46:45;2.50;;;2.23;;
11807;SDS011;5961;42.640;23.380;2023-03-01T01:49:19;1.97;;;1.87;;
11807;SDS011;5961;42.640;23.380;2023-03-01T01:51:51;1.90;;;1.80;;
11807;SDS011;5961;42.640;23.380;2023-03-01T01:54:26;1.90;;;1.80;;
11807;SDS011;5961;42.640;23.380;2023-03-01T01:56:56;2.20;;;2.00;;
11807;SDS011;5961;42.640;23.380;2023-03-01T01:59:26;1.80;;;1.70;;
11807;SDS011;5961;42.640;23.380;2023-03-01T02:01:55;2.00;;;1.90;;
11807;SDS011;5961;42.640;23.380;2023-03-01T02:04:26;2.03;;;1.90;;
11807;SDS011;5961;42.640;23.380;2023-03-01T02:06:55;1.87;;;1.77;;
11807;SDS011;5961;42.640;23.380;2023-03-01T02:09:27;1.83;;;1.73;;
11807;SDS011;5961;42.640;23.380;2023-03-01T02:11:54;1.97;;;1.87;;
11807;SDS011;5961;42.640;23.380;2023-03-01T02:14:21;2.10;;;2.00;;
11807;SDS011;5961;42.640;23.380;2023-03-01T02:16:47;2.30;;;2.20;;
11807;SDS011;5961;42.640;23.380;2023-03-01T02:19:17;2.97;;;1.97;;
11807;SDS011;5961;42.640;23.380;2023-03-01T02:21:55;2.10;;;2.00;;
11807;SDS011;5961;42.640;23.380;2023-03-01T02:24:31;2.20;;;2.00;;
11807;SDS011;5961;42.640;23.380;2023-03-01T02:27:17;1.90;;;1.80;;
11807;SDS011;5961;42.640;23.380;2023-03-01T02:29:50;2.03;;;1.90;;
11807;SDS011;5961;42.640;23.380;2023-03-01T02:32:17;2.23;;;2.07;;
11807;SDS011;5961;42.640;23.380;2023-03-01T02:34:50;2.30;;;2.10;;
11807;SDS011;5961;42.640;23.380;2023-03-01T02:37:17;2.20;;;2.00;;
11807;SDS011;5961;42.640;23.380;2023-03-01T02:39:50;2.40;;;2.20;;
11807;SDS011;5961;42.640;23.380;2023-03-01T02:42:23;2.30;;;2.10;;
11807;SDS011;5961;42.640;23.380;2023-03-01T02:44:55;2.30;;;2.10;;
11807;SDS011;5961;42.640;23.380;2023-03-01T02:47:22;2.40;;;2.20;;
11807;SDS011;5961;42.640;23.380;2023-03-01T02:49:49;3.00;;;2.70;;
11807;SDS011;5961;42.640;23.380;2023-03-01T02:52:30;2.70;;;2.47;;
11807;SDS011;5961;42.640;23.380;2023-03-01T02:55:06;2.50;;;2.30;;
11807;SDS011;5961;42.640;23.380;2023-03-01T02:57:37;2.80;;;2.60;;
11807;SDS011;5961;42.640;23.380;2023-03-01T03:00:09;2.60;;;2.40;;
11807;SDS011;5961;42.640;23.380;2023-03-01T03:02:44;2.93;;;2.73;;
11807;SDS011;5961;42.640;23.380;2023-03-01T03:05:12;3.20;;;2.90;;
11807;SDS011;5961;42.640;23.380;2023-03-01T03:07:40;3.33;;;3.03;;
11807;SDS011;5961;42.640;23.380;2023-03-01T03:10:10;3.33;;;3.03;;
11807;SDS011;5961;42.640;23.380;2023-03-01T03:12:39;3.70;;;3.40;;
11807;SDS011;5961;42.640;23.380;2023-03-01T03:15:08;3.83;;;3.43;;
11807;SDS011;5961;42.640;23.380;2023-03-01T03:17:38;4.17;;;3.63;;
11807;SDS011;5961;42.640;23.380;2023-03-01T03:20:07;4.27;;;3.87;;
11807;SDS011;5961;42.640;23.380;2023-03-01T03:22:36;4.27;;;3.83;;
11807;SDS011;5961;42.640;23.380;2023-03-01T03:25:04;4.90;;;4.40;;
11807;SDS011;5961;42.640;23.380;2023-03-01T03:27:35;4.60;;;4.20;;
11807;SDS011;5961;42.640;23.380;2023-03-01T03:30:03;4.50;;;4.10;;
11807;SDS011;5961;42.640;23.380;2023-03-01T03:32:35;4.23;;;3.83;;
11807;SDS011;5961;42.640;23.380;2023-03-01T03:35:02;4.93;;;4.10;;
11807;SDS011;5961;42.640;23.380;2023-03-01T03:37:34;4.00;;;3.60;;
11807;SDS011;5961;42.640;23.380;2023-03-01T03:40:19;3.70;;;3.40;;
11807;SDS011;5961;42.640;23.380;2023-03-01T03:42:45;3.70;;;3.30;;
11807;SDS011;5961;42.640;23.380;2023-03-01T03:45:30;3.40;;;3.10;;
11807;SDS011;5961;42.640;23.380;2023-03-01T03:47:59;3.37;;;2.93;;
11807;SDS011;5961;42.640;23.380;2023-03-01T03:50:27;2.70;;;2.50;;
11807;SDS011;5961;42.640;23.380;2023-03-01T03:52:54;3.00;;;2.70;;
11807;SDS011;5961;42.640;23.380;2023-03-01T03:55:20;2.73;;;2.47;;
11807;SDS011;5961;42.640;23.380;2023-03-01T03:57:47;2.90;;;2.60;;
11807;SDS011;5961;42.640;23.380;2023-03-01T04:00:17;2.53;;;2.33;;
11807;SDS011;5961;42.640;23.380;2023-03-01T04:02:45;2.87;;;2.67;;
11807;SDS011;5961;42.640;23.380;2023-03-01T04:05:15;2.63;;;2.40;;
11807;SDS011;5961;42.640;23.380;2023-03-01T04:07:44;2.33;;;2.13;;
11807;SDS011;5961;42.640;23.380;2023-03-01T04:10:12;2.30;;;2.10;;
11807;SDS011;5961;42.640;23.380;2023-03-01T04:12:40;2.93;;;2.50;;
11807;SDS011;5961;42.640;23.380;2023-03-01T04:15:08;3.30;;;2.47;;
11807;SDS011;5961;42.640;23.380;2023-03-01T04:17:38;5.63;;;2.77;;
11807;SDS011;5961;42.640;23.380;2023-03-01T04:20:07;2.63;;;2.40;;
11807;SDS011;5961;42.640;23.380;2023-03-01T04:22:38;2.70;;;2.50;;
11807;SDS011;5961;42.640;23.380;2023-03-01T04:25:06;2.80;;;2.50;;
11807;SDS011;5961;42.640;23.380;2023-03-01T04:27:33;2.70;;;2.43;;
11807;SDS011;5961;42.640;23.380;2023-03-01T04:30:00;2.77;;;2.57;;
11807;SDS011;5961;42.640;23.380;2023-03-01T04:32:26;3.13;;;2.87;;
11807;SDS011;5961;42.640;23.380;2023-03-01T04:34:53;3.30;;;2.90;;
11807;SDS011;5961;42.640;23.380;2023-03-01T04:37:20;2.90;;;2.70;;
11807;SDS011;5961;42.640;23.380;2023-03-01T04:39:48;3.37;;;2.77;;
11807;SDS011;5961;42.640;23.380;2023-03-01T04:42:14;3.00;;;2.70;;
11807;SDS011;5961;42.640;23.380;2023-03-01T04:44:42;3.83;;;3.07;;
11807;SDS011;5961;42.640;23.380;2023-03-01T04:47:08;4.47;;;3.40;;
11807;SDS011;5961;42.640;23.380;2023-03-01T04:49:35;3.73;;;3.07;;
11807;SDS011;5961;42.640;23.380;2023-03-01T04:52:02;5.10;;;3.50;;
11807;SDS011;5961;42.640;23.380;2023-03-01T04:54:29;4.40;;;2.77;;
11807;SDS011;5961;42.640;23.380;2023-03-01T04:56:58;2.80;;;2.60;;
11807;SDS011;5961;42.640;23.380;2023-03-01T04:59:25;2.90;;;2.50;;
11807;SDS011;5961;42.640;23.380;2023-03-01T05:01:52;3.13;;;2.83;;
11807;SDS011;5961;42.640;23.380;2023-03-01T05:04:21;3.00;;;2.70;;
11807;SDS011;5961;42.640;23.380;2023-03-01T05:06:47;4.07;;;2.80;;
11807;SDS011;5961;42.640;23.380;2023-03-01T05:09:14;4.13;;;3.30;;
11807;SDS011;5961;42.640;23.380;2023-03-01T05:11:41;3.60;;;3.10;;
11807;SDS011;5961;42.640;23.380;2023-03-01T05:14:10;4.10;;;3.27;;
11807;SDS011;5961;42.640;23.380;2023-03-01T05:16:38;3.00;;;2.50;;
11807;SDS011;5961;42.640;23.380;2023-03-01T05:19:04;4.07;;;3.30;;
11807;SDS011;5961;42.640;23.380;2023-03-01T05:21:36;6.33;;;2.90;;
11807;SDS011;5961;42.640;23.380;2023-03-01T05:24:23;3.13;;;2.83;;
11807;SDS011;5961;42.640;23.380;2023-03-01T05:26:50;3.17;;;2.87;;
11807;SDS011;5961;42.640;23.380;2023-03-01T05:29:19;3.47;;;3.17;;
11807;SDS011;5961;42.640;23.380;2023-03-01T05:31:50;3.97;;;3.37;;
11807;SDS011;5961;42.640;23.380;2023-03-01T05:34:17;4.93;;;3.60;;
11807;SDS011;5961;42.640;23.380;2023-03-01T05:36:44;4.97;;;2.90;;
11807;SDS011;5961;42.640;23.380;2023-03-01T05:39:11;3.93;;;2.93;;
11807;SDS011;5961;42.640;23.380;2023-03-01T05:41:37;3.30;;;3.00;;
11807;SDS011;5961;42.640;23.380;2023-03-01T05:44:05;4.60;;;2.97;;
11807;SDS011;5961;42.640;23.380;2023-03-01T05:46:34;3.53;;;3.00;;
11807;SDS011;5961;42.640;23.380;2023-03-01T05:49:01;5.50;;;3.07;;
11807;SDS011;5961;42.640;23.380;2023-03-01T05:51:27;3.10;;;2.80;;
11807;SDS011;5961;42.640;23.380;2023-03-01T05:53:54;4.00;;;3.40;;
11807;SDS011;5961;42.640;23.380;2023-03-01T05:56:21;3.43;;;3.10;;
11807;SDS011;5961;42.640;23.380;2023-03-01T05:58:48;3.77;;;3.43;;
11807;SDS011;5961;42.640;23.380;2023-03-01T06:01:15;3.83;;;3.40;;
11807;SDS011;5961;42.640;23.380;2023-03-01T06:03:43;3.70;;;2.87;;
11807;SDS011;5961;42.640;23.380;2023-03-01T06:06:10;4.80;;;2.90;;
11807;SDS011;5961;42.640;23.380;2023-03-01T06:08:37;3.33;;;2.50;;
11807;SDS011;5961;42.640;23.380;2023-03-01T06:11:03;3.47;;;3.03;;
11807;SDS011;5961;42.640;23.380;2023-03-01T06:13:32;4.13;;;2.57;;
11807;SDS011;5961;42.640;23.380;2023-03-01T06:15:59;4.43;;;3.00;;
11807;SDS011;5961;42.640;23.380;2023-03-01T06:18:26;3.47;;;2.90;;
11807;SDS011;5961;42.640;23.380;2023-03-01T06:20:54;3.10;;;2.80;;
11807;SDS011;5961;42.640;23.380;2023-03-01T06:23:21;4.77;;;3.37;;
11807;SDS011;5961;42.640;23.380;2023-03-01T06:25:48;3.93;;;3.37;;
11807;SDS011;5961;42.640;23.380;2023-03-01T06:28:15;5.23;;;3.00;;
11807;SDS011;5961;42.640;23.380;2023-03-01T06:30:42;4.60;;;3.00;;
11807;SDS011;5961;42.640;23.380;2023-03-01T06:33:09;3.67;;;3.00;;
11807;SDS011;5961;42.640;23.380;2023-03-01T06:35:35;4.53;;;3.33;;
11807;SDS011;5961;42.640;23.380;2023-03-01T06:38:03;3.73;;;3.10;;
11807;SDS011;5961;42.640;23.380;2023-03-01T06:40:31;4.60;;;3.00;;
11807;SDS011;5961;42.640;23.380;2023-03-01T06:43:00;6.47;;;3.47;;
11807;SDS011;5961;42.640;23.380;2023-03-01T06:45:27;4.40;;;3.20;;
11807;SDS011;5961;42.640;23.380;2023-03-01T06:48:00;6.27;;;2.97;;
11807;SDS011;5961;42.640;23.380;2023-03-01T06:50:29;4.80;;;2.83;;
11807;SDS011;5961;42.640;23.380;2023-03-01T06:52:56;3.33;;;3.00;;
11807;SDS011;5961;42.640;23.380;2023-03-01T06:55:24;6.67;;;3.03;;
11807;SDS011;5961;42.640;23.380;2023-03-01T06:57:53;4.43;;;3.00;;
11807;SDS011;5961;42.640;23.380;2023-03-01T07:00:21;2.73;;;2.37;;
11807;SDS011;5961;42.640;23.380;2023-03-01T07:02:49;4.17;;;2.70;;
11807;SDS011;5961;42.640;23.380;2023-03-01T07:05:15;4.53;;;2.50;;
11807;SDS011;5961;42.640;23.380;2023-03-01T07:07:42;5.00;;;2.60;;
11807;SDS011;5961;42.640;23.380;2023-03-01T07:10:09;3.10;;;2.80;;
11807;SDS011;5961;42.640;23.380;2023-03-01T07:12:38;3.47;;;2.73;;
11807;SDS011;5961;42.640;23.380;2023-03-01T07:15:07;3.07;;;2.40;;
11807;SDS011;5961;42.640;23.380;2023-03-01T07:17:35;2.83;;;2.43;;
11807;SDS011;5961;42.640;23.380;2023-03-01T07:20:02;3.17;;;2.80;;
11807;SDS011;5961;42.640;23.380;2023-03-01T07:22:30;5.63;;;3.00;;
11807;SDS011;5961;42.640;23.380;2023-03-01T07:24:56;4.87;;;2.37;;
11807;SDS011;5961;42.640;23.380;2023-03-01T07:27:23;3.80;;;2.87;;
11807;SDS011;5961;42.640;23.380;2023-03-01T07:29:51;4.97;;;3.20;;
11807;SDS011;5961;42.640;23.380;2023-03-01T07:32:18;4.13;;;3.30;;
11807;SDS011;5961;42.640;23.380;2023-03-01T07:34:44;3.10;;;2.50;;
11807;SDS011;5961;42.640;23.380;2023-03-01T07:37:11;5.20;;;3.13;;
11807;SDS011;5961;42.640;23.380;2023-03-01T07:39:38;4.60;;;2.80;;
11807;SDS011;5961;42.640;23.380;2023-03-01T07:42:04;3.60;;;2.93;;
11807;SDS011;5961;42.640;23.380;2023-03-01T07:44:31;2.70;;;2.47;;
11807;SDS011;5961;42.640;23.380;2023-03-01T07:47:00;4.17;;;3.00;;
11807;SDS011;5961;42.640;23.380;2023-03-01T07:49:26;3.60;;;2.43;;
11807;SDS011;5961;42.640;23.380;2023-03-01T07:51:53;3.20;;;2.80;;
11807;SDS011;5961;42.640;23.380;2023-03-01T07:54:20;7.07;;;2.60;;
11807;SDS011;5961;42.640;23.380;2023-03-01T07:56:47;4.23;;;2.50;;
11807;SDS011;5961;42.640;23.380;2023-03-01T07:59:13;2.90;;;2.43;;
11807;SDS011;5961;42.640;23.380;2023-03-01T08:01:40;3.80;;;2.60;;
11807;SDS011;5961;42.640;23.380;2023-03-01T08:04:08;4.37;;;2.67;;
11807;SDS011;5961;42.640;23.380;2023-03-01T08:06:35;2.50;;;2.30;;
11807;SDS011;5961;42.640;23.380;2023-03-01T08:09:02;2.40;;;2.20;;
11807;SDS011;5961;42.640;23.380;2023-03-01T08:11:29;2.67;;;2.40;;
11807;SDS011;5961;42.640;23.380;2023-03-01T08:13:56;3.50;;;2.40;;
11807;SDS011;5961;42.640;23.380;2023-03-01T08:16:22;4.67;;;2.50;;
11807;SDS011;5961;42.640;23.380;2023-03-01T08:18:49;2.20;;;2.00;;
11807;SDS011;5961;42.640;23.380;2023-03-01T08:21:17;4.23;;;2.20;;
11807;SDS011;5961;42.640;23.380;2023-03-01T08:23:44;5.30;;;2.43;;
11807;SDS011;5961;42.640;23.380;2023-03-01T08:26:12;2.73;;;2.47;;
11807;SDS011;5961;42.640;23.380;2023-03-01T08:28:40;2.83;;;2.37;;
11807;SDS011;5961;42.640;23.380;2023-03-01T08:31:14;2.57;;;2.37;;
11807;SDS011;5961;42.640;23.380;2023-03-01T08:33:42;4.17;;;2.27;;
11807;SDS011;5961;42.640;23.380;2023-03-01T08:36:09;3.47;;;2.50;;
11807;SDS011;5961;42.640;23.380;2023-03-01T08:38:37;3.77;;;2.57;;
11807;SDS011;5961;42.640;23.380;2023-03-01T08:41:04;3.00;;;2.40;;
11807;SDS011;5961;42.640;23.380;2023-03-01T08:43:30;3.47;;;2.60;;
11807;SDS011;5961;42.640;23.380;2023-03-01T08:45:57;2.90;;;2.67;;
11807;SDS011;5961;42.640;23.380;2023-03-01T08:48:24;3.20;;;2.90;;
11807;SDS011;5961;42.640;23.380;2023-03-01T08:50:51;5.60;;;2.80;;
11807;SDS011;5961;42.640;23.380;2023-03-01T08:53:18;7.10;;;2.83;;
11807;SDS011;5961;42.640;23.380;2023-03-01T08:55:46;3.83;;;3.10;;
11807;SDS011;5961;42.640;23.380;2023-03-01T08:58:12;5.07;;;3.60;;
11807;SDS011;5961;42.640;23.380;2023-03-01T09:00:39;4.60;;;4.00;;
11807;SDS011;5961;42.640;23.380;2023-03-01T09:03:06;6.27;;;4.97;;
11807;SDS011;5961;42.640;23.380;2023-03-01T09:05:33;4.97;;;4.07;;
11807;SDS011;5961;42.640;23.380;2023-03-01T09:08:01;5.23;;;3.60;;
11807;SDS011;5961;42.640;23.380;2023-03-01T09:10:28;4.40;;;3.80;;
11807;SDS011;5961;42.640;23.380;2023-03-01T09:12:56;6.27;;;3.87;;
11807;SDS011;5961;42.640;23.380;2023-03-01T09:15:23;6.73;;;3.30;;
11807;SDS011;5961;42.640;23.380;2023-03-01T09:17:50;4.57;;;3.20;;
11807;SDS011;5961;42.640;23.380;2023-03-01T09:20:16;4.20;;;3.10;;
11807;SDS011;5961;42.640;23.380;2023-03-01T09:22:43;3.23;;;2.67;;
11807;SDS011;5961;42.640;23.380;2023-03-01T09:25:10;4.83;;;3.10;;
11807;SDS011;5961;42.640;23.380;2023-03-01T09:27:37;2.83;;;2.53;;
11807;SDS011;5961;42.640;23.380;2023-03-01T09:30:05;3.50;;;2.77;;
11807;SDS011;5961;42.640;23.380;2023-03-01T09:32:35;4.00;;;2.57;;
11807;SDS011;5961;42.640;23.380;2023-03-01T09:35:02;4.07;;;2.00;;
11807;SDS011;5961;42.640;23.380;2023-03-01T09:37:32;2.73;;;2.23;;
11807;SDS011;5961;42.640;23.380;2023-03-01T09:39:59;4.33;;;2.57;;
11807;SDS011;5961;42.640;23.380;2023-03-01T09:42:27;4.57;;;2.40;;
11807;SDS011;5961;42.640;23.380;2023-03-01T09:44:57;3.07;;;2.20;;
11807;SDS011;5961;42.640;23.380;2023-03-01T09:47:28;2.93;;;2.00;;
11807;SDS011;5961;42.640;23.380;2023-03-01T09:49:58;7.20;;;2.10;;
11807;SDS011;5961;42.640;23.380;2023-03-01T09:52:33;4.13;;;1.80;;
11807;SDS011;5961;42.640;23.380;2023-03-01T09:55:08;3.07;;;1.90;;
11807;SDS011;5961;42.640;23.380;2023-03-01T09:57:39;3.43;;;2.10;;
11807;SDS011;5961;42.640;23.380;2023-03-01T10:00:20;2.27;;;2.00;;
11807;SDS011;5961;42.640;23.380;2023-03-01T10:02:59;4.20;;;2.47;;
11807;SDS011;5961;42.640;23.380;2023-03-01T10:05:36;2.83;;;2.27;;
11807;SDS011;5961;42.640;23.380;2023-03-01T10:08:24;5.23;;;2.53;;
11807;SDS011;5961;42.640;23.380;2023-03-01T10:10:56;5.13;;;2.50;;
11807;SDS011;5961;42.640;23.380;2023-03-01T10:13:24;3.03;;;2.13;;
11807;SDS011;5961;42.640;23.380;2023-03-01T10:15:56;3.07;;;1.97;;
11807;SDS011;5961;42.640;23.380;2023-03-01T10:18:26;3.90;;;2.37;;
11807;SDS011;5961;42.640;23.380;2023-03-01T10:20:58;3.67;;;2.40;;
11807;SDS011;5961;42.640;23.380;2023-03-01T10:23:26;2.40;;;2.10;;
11807;SDS011;5961;42.640;23.380;2023-03-01T10:26:03;4.03;;;1.80;;
11807;SDS011;5961;42.640;23.380;2023-03-01T10:28:47;4.43;;;2.17;;
11807;SDS011;5961;42.640;23.380;2023-03-01T10:31:20;6.37;;;2.30;;
11807;SDS011;5961;42.640;23.380;2023-03-01T10:33:54;2.67;;;2.30;;
11807;SDS011;5961;42.640;23.380;2023-03-01T10:36:22;2.63;;;2.43;;
11807;SDS011;5961;42.640;23.380;2023-03-01T10:38:50;4.20;;;2.00;;
11807;SDS011;5961;42.640;23.380;2023-03-01T10:41:19;5.43;;;2.00;;
11807;SDS011;5961;42.640;23.380;2023-03-01T10:43:49;2.97;;;1.80;;
11807;SDS011;5961;42.640;23.380;2023-03-01T10:46:24;2.60;;;2.10;;
11807;SDS011;5961;42.640;23.380;2023-03-01T10:49:14;2.33;;;2.00;;
11807;SDS011;5961;42.640;23.380;2023-03-01T10:51:42;3.47;;;2.37;;
11807;SDS011;5961;42.640;23.380;2023-03-01T10:54:15;2.93;;;2.63;;
11807;SDS011;5961;42.640;23.380;2023-03-01T10:56:47;2.40;;;2.10;;
11807;SDS011;5961;42.640;23.380;2023-03-01T10:59:21;4.03;;;2.20;;
11807;SDS011;5961;42.640;23.380;2023-03-01T11:02:03;4.40;;;2.30;;
11807;SDS011;5961;42.640;23.380;2023-03-01T11:04:46;4.40;;;2.70;;
11807;SDS011;5961;42.640;23.380;2023-03-01T11:07:23;2.63;;;2.33;;
11807;SDS011;5961;42.640;23.380;2023-03-01T11:09:50;2.67;;;2.20;;
11807;SDS011;5961;42.640;23.380;2023-03-01T11:12:16;3.43;;;2.70;;
11807;SDS011;5961;42.640;23.380;2023-03-01T11:14:46;2.97;;;2.20;;
11807;SDS011;5961;42.640;23.380;2023-03-01T11:17:15;6.23;;;2.80;;
11807;SDS011;5961;42.640;23.380;2023-03-01T11:19:51;3.17;;;2.70;;
11807;SDS011;5961;42.640;23.380;2023-03-01T11:22:26;4.77;;;2.50;;
11807;SDS011;5961;42.640;23.380;2023-03-01T11:24:54;2.83;;;2.53;;
11807;SDS011;5961;42.640;23.380;2023-03-01T11:27:24;4.10;;;2.70;;
11807;SDS011;5961;42.640;23.380;2023-03-01T11:29:52;5.10;;;2.80;;
11807;SDS011;5961;42.640;23.380;2023-03-01T11:32:26;3.03;;;2.73;;
11807;SDS011;5961;42.640;23.380;2023-03-01T11:35:02;3.33;;;2.80;;
11807;SDS011;5961;42.640;23.380;2023-03-01T11:37:38;3.90;;;3.00;;
11807;SDS011;5961;42.640;23.380;2023-03-01T11:40:11;4.73;;;3.07;;
11807;SDS011;5961;42.640;23.380;2023-03-01T11:42:50;3.10;;;2.90;;
11807;SDS011;5961;42.640;23.380;2023-03-01T11:45:23;8.17;;;3.70;;
11807;SDS011;5961;42.640;23.380;2023-03-01T11:48:00;4.40;;;4.00;;
11807;SDS011;5961;42.640;23.380;2023-03-01T11:50:41;6.33;;;4.40;;
11807;SDS011;5961;42.640;23.380;2023-03-01T11:56:16;4.73;;;3.57;;
11807;SDS011;5961;42.640;23.380;2023-03-01T11:59:00;6.70;;;3.70;;
11807;SDS011;5961;42.640;23.380;2023-03-01T12:01:37;4.80;;;3.53;;
11807;SDS011;5961;42.640;23.380;2023-03-01T12:04:18;9.80;;;3.93;;
11807;SDS011;5961;42.640;23.380;2023-03-01T12:07:04;4.30;;;3.50;;
11807;SDS011;5961;42.640;23.380;2023-03-01T12:09:44;4.77;;;3.47;;
11807;SDS011;5961;42.640;23.380;2023-03-01T12:12:25;3.83;;;3.47;;
11807;SDS011;5961;42.640;23.380;2023-03-01T12:15:08;3.50;;;3.17;;
11807;SDS011;5961;42.640;23.380;2023-03-01T12:17:57;3.87;;;3.20;;
11807;SDS011;5961;42.640;23.380;2023-03-01T12:20:38;3.73;;;3.10;;
11807;SDS011;5961;42.640;23.380;2023-03-01T12:26:06;4.70;;;3.43;;
11807;SDS011;5961;42.640;23.380;2023-03-01T12:28:44;4.23;;;3.73;;
11807;SDS011;5961;42.640;23.380;2023-03-01T12:31:32;4.23;;;3.83;;
11807;SDS011;5961;42.640;23.380;2023-03-01T12:34:25;4.13;;;3.70;;
11807;SDS011;5961;42.640;23.380;2023-03-01T12:37:11;4.77;;;3.30;;
11807;SDS011;5961;42.640;23.380;2023-03-01T12:39:50;3.90;;;3.30;;
11807;SDS011;5961;42.640;23.380;2023-03-01T12:42:29;5.30;;;3.37;;
11807;SDS011;5961;42.640;23.380;2023-03-01T12:45:06;4.33;;;3.30;;
11807;SDS011;5961;42.640;23.380;2023-03-01T12:48:01;4.03;;;3.67;;
11807;SDS011;5961;42.640;23.380;2023-03-01T12:50:41;4.03;;;3.60;;
11807;SDS011;5961;42.640;23.380;2023-03-01T12:53:15;5.70;;;3.40;;
11807;SDS011;5961;42.640;23.380;2023-03-01T12:55:50;4.50;;;3.67;;
11807;SDS011;5961;42.640;23.380;2023-03-01T12:58:22;4.23;;;3.60;;
11807;SDS011;5961;42.640;23.380;2023-03-01T13:00:59;4.07;;;3.67;;
11807;SDS011;5961;42.640;23.380;2023-03-01T13:03:53;3.87;;;3.43;;
11807;SDS011;5961;42.640;23.380;2023-03-01T13:06:30;5.27;;;3.60;;
11807;SDS011;5961;42.640;23.380;2023-03-01T13:09:07;4.57;;;3.80;;
11807;SDS011;5961;42.640;23.380;2023-03-01T13:11:42;4.20;;;3.70;;
11807;SDS011;5961;42.640;23.380;2023-03-01T13:17:01;6.03;;;4.03;;
11807;SDS011;5961;42.640;23.380;2023-03-01T13:19:28;4.20;;;3.60;;
11807;SDS011;5961;42.640;23.380;2023-03-01T13:21:57;5.00;;;3.80;;
11807;SDS011;5961;42.640;23.380;2023-03-01T13:24:28;4.00;;;3.60;;
11807;SDS011;5961;42.640;23.380;2023-03-01T13:29:55;4.07;;;3.27;;
11807;SDS011;5961;42.640;23.380;2023-03-01T13:32:25;4.17;;;3.77;;
11807;SDS011;5961;42.640;23.380;2023-03-01T13:34:57;5.60;;;3.83;;
11807;SDS011;5961;42.640;23.380;2023-03-01T13:37:26;4.70;;;3.80;;
11807;SDS011;5961;42.640;23.380;2023-03-01T13:39:56;3.70;;;3.37;;
11807;SDS011;5961;42.640;23.380;2023-03-01T13:42:35;4.50;;;4.00;;
11807;SDS011;5961;42.640;23.380;2023-03-01T13:45:05;5.43;;;3.43;;
11807;SDS011;5961;42.640;23.380;2023-03-01T13:47:42;3.87;;;3.47;;
11807;SDS011;5961;42.640;23.380;2023-03-01T13:50:16;3.97;;;2.93;;
11807;SDS011;5961;42.640;23.380;2023-03-01T13:52:47;4.50;;;3.47;;
11807;SDS011;5961;42.640;23.380;2023-03-01T13:55:17;3.80;;;3.40;;
11807;SDS011;5961;42.640;23.380;2023-03-01T13:57:49;4.73;;;3.50;;
11807;SDS011;5961;42.640;23.380;2023-03-01T14:00:25;4.27;;;3.53;;
11807;SDS011;5961;42.640;23.380;2023-03-01T14:03:02;7.90;;;3.70;;
11807;SDS011;5961;42.640;23.380;2023-03-01T14:05:32;5.17;;;3.63;;
11807;SDS011;5961;42.640;23.380;2023-03-01T14:08:01;5.03;;;3.90;;
11807;SDS011;5961;42.640;23.380;2023-03-01T14:10:29;4.93;;;3.50;;
11807;SDS011;5961;42.640;23.380;2023-03-01T14:13:10;4.03;;;3.60;;
11807;SDS011;5961;42.640;23.380;2023-03-01T14:15:56;4.83;;;4.07;;
11807;SDS011;5961;42.640;23.380;2023-03-01T14:18:35;6.97;;;3.77;;
11807;SDS011;5961;42.640;23.380;2023-03-01T14:21:12;4.33;;;3.13;;
11807;SDS011;5961;42.640;23.380;2023-03-01T14:23:40;4.03;;;3.30;;
11807;SDS011;5961;42.640;23.380;2023-03-01T14:26:08;3.63;;;3.10;;
11807;SDS011;5961;42.640;23.380;2023-03-01T14:28:38;4.40;;;3.57;;
11807;SDS011;5961;42.640;23.380;2023-03-01T14:33:59;4.00;;;3.33;;
11807;SDS011;5961;42.640;23.380;2023-03-01T14:36:26;4.33;;;3.23;;
11807;SDS011;5961;42.640;23.380;2023-03-01T14:38:54;4.20;;;2.90;;
11807;SDS011;5961;42.640;23.380;2023-03-01T14:41:25;7.90;;;3.40;;
11807;SDS011;5961;42.640;23.380;2023-03-01T14:43:57;3.47;;;3.00;;
11807;SDS011;5961;42.640;23.380;2023-03-01T14:46:30;4.57;;;3.20;;
11807;SDS011;5961;42.640;23.380;2023-03-01T14:49:01;4.00;;;3.00;;
11807;SDS011;5961;42.640;23.380;2023-03-01T14:51:29;4.43;;;3.50;;
11807;SDS011;5961;42.640;23.380;2023-03-01T14:53:56;5.57;;;3.53;;
11807;SDS011;5961;42.640;23.380;2023-03-01T14:56:23;4.83;;;3.60;;
11807;SDS011;5961;42.640;23.380;2023-03-01T14:58:53;4.20;;;3.77;;
11807;SDS011;5961;42.640;23.380;2023-03-01T15:01:25;4.80;;;3.50;;
11807;SDS011;5961;42.640;23.380;2023-03-01T15:03:54;4.73;;;3.50;;
11807;SDS011;5961;42.640;23.380;2023-03-01T15:06:21;3.80;;;3.30;;
11807;SDS011;5961;42.640;23.380;2023-03-01T15:08:50;4.70;;;3.47;;
11807;SDS011;5961;42.640;23.380;2023-03-01T15:11:20;4.23;;;3.70;;
11807;SDS011;5961;42.640;23.380;2023-03-01T15:13:49;3.77;;;3.40;;
11807;SDS011;5961;42.640;23.380;2023-03-01T15:16:18;7.63;;;4.10;;
11807;SDS011;5961;42.640;23.380;2023-03-01T15:18:48;4.27;;;3.37;;
11807;SDS011;5961;42.640;23.380;2023-03-01T15:21:17;3.70;;;3.40;;